ARCTOS ETNW-ETNW
Flight info
| Callsign | ARCTOS |
|---|---|
| Flight time | 0h 44m |
| Altitude | 9000 |
| Route | VFR |
| Aircraft | A400/H-SDE2E3FGHIJ4J5M1RWXY/S |
Departure
| Time | 2026-04-15 16:08 |
|---|---|
| Airport | Wunstorf Air Base (ETNW) |
Arrival
| Time | 2026-04-15 16:53 |
|---|---|
| Airport | Wunstorf Air Base (ETNW) |
| Time | Latitude | Longitude | Altitude | Speed | Heading |
|---|---|---|---|---|---|
| 2026-04-15 15:37 | 52.46023 | 9.42511 | 196 ft | 0 kts | 262° |
| 2026-04-15 16:04 | 52.46018 | 9.42473 | 179 ft | 5 kts | 248° |
| 2026-04-15 16:05 | 52.45998 | 9.42455 | 183 ft | 3 kts | 184° |
| 2026-04-15 16:05 | 52.45962 | 9.42455 | 183 ft | 6 kts | 175° |
| 2026-04-15 16:05 | 52.45927 | 9.42448 | 181 ft | 4 kts | 222° |
| 2026-04-15 16:05 | 52.45904 | 9.42401 | 184 ft | 5 kts | 252° |
| 2026-04-15 16:06 | 52.45888 | 9.42221 | 181 ft | 19 kts | 261° |
| 2026-04-15 16:06 | 52.45866 | 9.41996 | 189 ft | 21 kts | 263° |
| 2026-04-15 16:06 | 52.45845 | 9.41792 | 186 ft | 8 kts | 242° |
| 2026-04-15 16:06 | 52.45799 | 9.41770 | 185 ft | 8 kts | 183° |
| 2026-04-15 16:07 | 52.45721 | 9.41788 | 195 ft | 19 kts | 172° |
| 2026-04-15 16:07 | 52.45656 | 9.41844 | 194 ft | 3 kts | 97° |
| 2026-04-15 16:07 | 52.45657 | 9.41852 | 195 ft | 0 kts | 84° |
| 2026-04-15 16:08 | 52.45657 | 9.41854 | 188 ft | 1 kts | 84° |
| 2026-04-15 16:08 | 52.45685 | 9.42211 | 183 ft | 89 kts | 82° |
| 2026-04-15 16:08 | 52.45837 | 9.43847 | 427 ft | 178 kts | 83° |
| 2026-04-15 16:08 | 52.46081 | 9.46030 | 1039 ft | 216 kts | 72° |
| 2026-04-15 16:09 | 52.47165 | 9.48017 | 1076 ft | 255 kts | 27° |
| 2026-04-15 16:09 | 52.48885 | 9.48257 | 1221 ft | 260 kts | 342° |
| 2026-04-15 16:09 | 52.50267 | 9.46397 | 1099 ft | 263 kts | 297° |
| 2026-04-15 16:09 | 52.50534 | 9.43609 | 1164 ft | 242 kts | 259° |
| 2026-04-15 16:10 | 52.50280 | 9.40928 | 1442 ft | 233 kts | 260° |
| 2026-04-15 16:10 | 52.50067 | 9.38318 | 1448 ft | 230 kts | 260° |
| 2026-04-15 16:10 | 52.49688 | 9.35904 | 1601 ft | 204 kts | 235° |
| 2026-04-15 16:10 | 52.48591 | 9.34803 | 1474 ft | 185 kts | 182° |
| 2026-04-15 16:11 | 52.47443 | 9.35524 | 1211 ft | 176 kts | 142° |
| 2026-04-15 16:11 | 52.46679 | 9.36978 | 933 ft | 165 kts | 125° |
| 2026-04-15 16:11 | 52.46120 | 9.38564 | 815 ft | 153 kts | 119° |
| 2026-04-15 16:11 | 52.45724 | 9.40103 | 591 ft | 142 kts | 105° |
| 2026-04-15 16:12 | 52.45635 | 9.41560 | 239 ft | 115 kts | 88° |
| 2026-04-15 16:12 | 52.45714 | 9.42535 | 257 ft | 125 kts | 84° |
| 2026-04-15 16:12 | 52.45879 | 9.44058 | 618 ft | 167 kts | 81° |
| 2026-04-15 16:12 | 52.46182 | 9.46096 | 1091 ft | 205 kts | 68° |
| 2026-04-15 16:13 | 52.47332 | 9.47729 | 1657 ft | 245 kts | 18° |
| 2026-04-15 16:13 | 52.48972 | 9.47691 | 1684 ft | 229 kts | 333° |
| 2026-04-15 16:13 | 52.49862 | 9.45796 | 1451 ft | 205 kts | 278° |
| 2026-04-15 16:13 | 52.49810 | 9.43566 | 1330 ft | 200 kts | 261° |
| 2026-04-15 16:14 | 52.49624 | 9.41213 | 1318 ft | 212 kts | 262° |
| 2026-04-15 16:14 | 52.49436 | 9.38842 | 1267 ft | 200 kts | 260° |
| 2026-04-15 16:14 | 52.48993 | 9.36897 | 1066 ft | 176 kts | 224° |
| 2026-04-15 16:14 | 52.47992 | 9.36055 | 832 ft | 149 kts | 179° |
| 2026-04-15 16:15 | 52.47074 | 9.36616 | 803 ft | 149 kts | 145° |
| 2026-04-15 16:15 | 52.46296 | 9.37674 | 677 ft | 145 kts | 137° |
| 2026-04-15 16:15 | 52.45680 | 9.38960 | 596 ft | 142 kts | 118° |
| 2026-04-15 16:15 | 52.45483 | 9.40498 | 564 ft | 139 kts | 78° |
| 2026-04-15 16:16 | 52.45681 | 9.42034 | 455 ft | 138 kts | 85° |
| 2026-04-15 16:16 | 52.45846 | 9.43869 | 528 ft | 187 kts | 81° |
| 2026-04-15 16:16 | 52.46100 | 9.46107 | 1030 ft | 212 kts | 81° |
| 2026-04-15 16:16 | 52.46851 | 9.48378 | 1302 ft | 249 kts | 42° |
| 2026-04-15 16:17 | 52.48370 | 9.49158 | 1128 ft | 223 kts | 349° |
| 2026-04-15 16:17 | 52.49522 | 9.47762 | 1115 ft | 216 kts | 291° |
| 2026-04-15 16:17 | 52.49523 | 9.45355 | 1018 ft | 217 kts | 259° |
| 2026-04-15 16:17 | 52.49326 | 9.42908 | 1280 ft | 216 kts | 262° |
| 2026-04-15 16:18 | 52.49138 | 9.40521 | 1291 ft | 200 kts | 260° |
| 2026-04-15 16:18 | 52.48572 | 9.38625 | 1059 ft | 178 kts | 219° |
| 2026-04-15 16:18 | 52.47553 | 9.37861 | 808 ft | 150 kts | 185° |
| 2026-04-15 16:18 | 52.46629 | 9.38173 | 652 ft | 128 kts | 150° |
| 2026-04-15 16:19 | 52.46036 | 9.38988 | 467 ft | 99 kts | 126° |
| 2026-04-15 16:19 | 52.45751 | 9.40019 | 407 ft | 102 kts | 107° |
| 2026-04-15 16:19 | 52.45631 | 9.41187 | 279 ft | 108 kts | 90° |
| 2026-04-15 16:19 | 52.45712 | 9.42404 | 197 ft | 96 kts | 84° |
| 2026-04-15 16:20 | 52.45833 | 9.43681 | 353 ft | 140 kts | 82° |
| 2026-04-15 16:20 | 52.45947 | 9.44716 | 593 ft | 161 kts | 82° |
| 2026-04-15 16:20 | 52.46470 | 9.46535 | 874 ft | 213 kts | 40° |
| 2026-04-15 16:20 | 52.47949 | 9.47089 | 1007 ft | 238 kts | 346° |
| 2026-04-15 16:21 | 52.49212 | 9.45296 | 1094 ft | 254 kts | 289° |
| 2026-04-15 16:21 | 52.49290 | 9.42425 | 1433 ft | 255 kts | 262° |
| 2026-04-15 16:21 | 52.49134 | 9.39535 | 1593 ft | 258 kts | 263° |
| 2026-04-15 16:21 | 52.48958 | 9.36571 | 1349 ft | 252 kts | 262° |
| 2026-04-15 16:22 | 52.48762 | 9.33876 | 1253 ft | 221 kts | 259° |
| 2026-04-15 16:22 | 52.48214 | 9.31847 | 1369 ft | 178 kts | 222° |
| 2026-04-15 16:22 | 52.47232 | 9.31421 | 1403 ft | 135 kts | 154° |
| 2026-04-15 16:22 | 52.46528 | 9.32515 | 1204 ft | 146 kts | 127° |
| 2026-04-15 16:23 | 52.45969 | 9.33886 | 1164 ft | 142 kts | 126° |
| 2026-04-15 16:23 | 52.45565 | 9.35217 | 1184 ft | 122 kts | 109° |
| 2026-04-15 16:23 | 52.45472 | 9.36559 | 1025 ft | 121 kts | 97° |
| 2026-04-15 16:23 | 52.45434 | 9.37917 | 816 ft | 118 kts | 91° |
| 2026-04-15 16:24 | 52.45470 | 9.39352 | 538 ft | 131 kts | 89° |
| 2026-04-15 16:24 | 52.45572 | 9.40859 | 316 ft | 126 kts | 83° |
| 2026-04-15 16:24 | 52.45692 | 9.42186 | 195 ft | 108 kts | 84° |
| 2026-04-15 16:24 | 52.45800 | 9.43456 | 300 ft | 143 kts | 84° |
| 2026-04-15 16:25 | 52.46033 | 9.45324 | 672 ft | 189 kts | 64° |
| 2026-04-15 16:25 | 52.47235 | 9.46528 | 1115 ft | 234 kts | 6° |
| 2026-04-15 16:25 | 52.48956 | 9.45917 | 1323 ft | 259 kts | 328° |
| 2026-04-15 16:25 | 52.49987 | 9.43842 | 1283 ft | 221 kts | 283° |
| 2026-04-15 16:26 | 52.49980 | 9.41410 | 1233 ft | 213 kts | 263° |
| 2026-04-15 16:26 | 52.49811 | 9.39059 | 1224 ft | 202 kts | 261° |
| 2026-04-15 16:26 | 52.49437 | 9.36971 | 1111 ft | 182 kts | 230° |
| 2026-04-15 16:26 | 52.48498 | 9.35905 | 955 ft | 154 kts | 192° |
| 2026-04-15 16:27 | 52.47560 | 9.35986 | 742 ft | 122 kts | 160° |
| 2026-04-15 16:27 | 52.46799 | 9.36794 | 788 ft | 137 kts | 141° |
| 2026-04-15 16:27 | 52.46171 | 9.37853 | 779 ft | 126 kts | 130° |
| 2026-04-15 16:27 | 52.45731 | 9.39010 | 643 ft | 117 kts | 110° |
| 2026-04-15 16:28 | 52.45598 | 9.40330 | 437 ft | 116 kts | 92° |
| 2026-04-15 16:28 | 52.45640 | 9.41665 | 373 ft | 134 kts | 85° |
| 2026-04-15 16:28 | 52.45802 | 9.43447 | 679 ft | 179 kts | 84° |
| 2026-04-15 16:28 | 52.46091 | 9.45654 | 1076 ft | 221 kts | 62° |
| 2026-04-15 16:29 | 52.47328 | 9.47126 | 1154 ft | 233 kts | 12° |
| 2026-04-15 16:29 | 52.48897 | 9.46547 | 1216 ft | 237 kts | 323° |
| 2026-04-15 16:29 | 52.49757 | 9.44318 | 1262 ft | 236 kts | 277° |
| 2026-04-15 16:29 | 52.49651 | 9.41642 | 1268 ft | 238 kts | 261° |
| 2026-04-15 16:30 | 52.49424 | 9.38982 | 1303 ft | 228 kts | 252° |
| 2026-04-15 16:30 | 52.48572 | 9.37181 | 1362 ft | 182 kts | 203° |
| 2026-04-15 16:30 | 52.47466 | 9.37132 | 1183 ft | 148 kts | 163° |
| 2026-04-15 16:30 | 52.46576 | 9.37920 | 934 ft | 148 kts | 144° |
| 2026-04-15 16:31 | 52.45899 | 9.38928 | 708 ft | 121 kts | 130° |
| 2026-04-15 16:31 | 52.45571 | 9.40067 | 428 ft | 107 kts | 96° |
| 2026-04-15 16:31 | 52.45614 | 9.41295 | 302 ft | 120 kts | 83° |
| 2026-04-15 16:31 | 52.45767 | 9.42958 | 566 ft | 173 kts | 84° |
| 2026-04-15 16:32 | 52.45967 | 9.45145 | 721 ft | 194 kts | 76° |
| 2026-04-15 16:32 | 52.46977 | 9.46696 | 825 ft | 218 kts | 15° |
| 2026-04-15 16:32 | 52.48452 | 9.46264 | 1070 ft | 227 kts | 323° |
| 2026-04-15 16:32 | 52.49283 | 9.44063 | 1194 ft | 234 kts | 276° |
| 2026-04-15 16:33 | 52.49192 | 9.41384 | 1346 ft | 238 kts | 263° |
| 2026-04-15 16:33 | 52.49001 | 9.38659 | 1226 ft | 243 kts | 258° |
| 2026-04-15 16:33 | 52.48117 | 9.36552 | 952 ft | 216 kts | 211° |
| 2026-04-15 16:33 | 52.46808 | 9.36119 | 901 ft | 180 kts | 163° |
| 2026-04-15 16:34 | 52.45970 | 9.37278 | 798 ft | 149 kts | 123° |
| 2026-04-15 16:34 | 52.45645 | 9.38718 | 572 ft | 117 kts | 99° |
| 2026-04-15 16:34 | 52.45561 | 9.40134 | 417 ft | 126 kts | 90° |
| 2026-04-15 16:34 | 52.45632 | 9.41531 | 233 ft | 114 kts | 85° |
| 2026-04-15 16:35 | 52.45744 | 9.42777 | 251 ft | 129 kts | 83° |
| 2026-04-15 16:35 | 52.45908 | 9.44428 | 624 ft | 161 kts | 83° |
| 2026-04-15 16:35 | 52.46683 | 9.46011 | 711 ft | 207 kts | 21° |
| 2026-04-15 16:35 | 52.48098 | 9.45625 | 801 ft | 223 kts | 321° |
| 2026-04-15 16:36 | 52.48737 | 9.43360 | 996 ft | 226 kts | 266° |
| 2026-04-15 16:36 | 52.48591 | 9.40845 | 1213 ft | 214 kts | 261° |
| 2026-04-15 16:36 | 52.48148 | 9.38754 | 1273 ft | 178 kts | 231° |
| 2026-04-15 16:36 | 52.47201 | 9.38065 | 1155 ft | 139 kts | 172° |
| 2026-04-15 16:37 | 52.46329 | 9.38732 | 921 ft | 140 kts | 143° |
| 2026-04-15 16:37 | 52.45692 | 9.39942 | 588 ft | 140 kts | 117° |
| 2026-04-15 16:37 | 52.45624 | 9.41380 | 247 ft | 124 kts | 90° |
| 2026-04-15 16:37 | 52.45767 | 9.43013 | 439 ft | 161 kts | 81° |
| 2026-04-15 16:38 | 52.46043 | 9.45016 | 670 ft | 204 kts | 64° |
| 2026-04-15 16:38 | 52.47236 | 9.46322 | 770 ft | 222 kts | 7° |
| 2026-04-15 16:38 | 52.48709 | 9.45457 | 832 ft | 234 kts | 314° |
| 2026-04-15 16:38 | 52.49308 | 9.43094 | 1002 ft | 227 kts | 267° |
| 2026-04-15 16:39 | 52.49090 | 9.40576 | 1043 ft | 226 kts | 253° |
| 2026-04-15 16:39 | 52.48335 | 9.38530 | 1169 ft | 189 kts | 216° |
| 2026-04-15 16:39 | 52.47237 | 9.38128 | 1114 ft | 148 kts | 168° |
| 2026-04-15 16:39 | 52.46319 | 9.38827 | 834 ft | 144 kts | 146° |
| 2026-04-15 16:40 | 52.45675 | 9.39968 | 514 ft | 131 kts | 116° |
| 2026-04-15 16:40 | 52.45622 | 9.41338 | 264 ft | 120 kts | 85° |
| 2026-04-15 16:40 | 52.45728 | 9.42615 | 196 ft | 104 kts | 83° |
| 2026-04-15 16:40 | 52.45855 | 9.44067 | 354 ft | 154 kts | 81° |
| 2026-04-15 16:41 | 52.46333 | 9.45806 | 490 ft | 197 kts | 41° |
| 2026-04-15 16:41 | 52.47733 | 9.46279 | 611 ft | 223 kts | 347° |
| 2026-04-15 16:41 | 52.48953 | 9.44741 | 890 ft | 230 kts | 298° |
| 2026-04-15 16:41 | 52.49143 | 9.42147 | 1134 ft | 231 kts | 261° |
| 2026-04-15 16:42 | 52.48938 | 9.39673 | 1213 ft | 203 kts | 252° |
| 2026-04-15 16:42 | 52.48118 | 9.38036 | 1026 ft | 179 kts | 202° |
| 2026-04-15 16:42 | 52.47368 | 9.37864 | 1011 ft | 153 kts | 173° |
| 2026-04-15 16:42 | 52.46163 | 9.38852 | 775 ft | 149 kts | 138° |
| 2026-04-15 16:43 | 52.45736 | 9.39689 | 617 ft | 135 kts | 122° |
| 2026-04-15 16:43 | 52.45590 | 9.41037 | 316 ft | 122 kts | 84° |
| 2026-04-15 16:43 | 52.45701 | 9.42339 | 202 ft | 95 kts | 83° |
| 2026-04-15 16:43 | 52.45819 | 9.43643 | 316 ft | 145 kts | 81° |
| 2026-04-15 16:44 | 52.46152 | 9.45363 | 561 ft | 186 kts | 50° |
| 2026-04-15 16:44 | 52.47418 | 9.46231 | 723 ft | 214 kts | 359° |
| 2026-04-15 16:44 | 52.48800 | 9.45190 | 992 ft | 231 kts | 311° |
| 2026-04-15 16:44 | 52.49373 | 9.42724 | 1122 ft | 238 kts | 267° |
| 2026-04-15 16:45 | 52.49161 | 9.40038 | 1150 ft | 242 kts | 259° |
| 2026-04-15 16:45 | 52.48385 | 9.37743 | 1114 ft | 224 kts | 213° |
| 2026-04-15 16:45 | 52.47051 | 9.37405 | 1151 ft | 182 kts | 160° |
| 2026-04-15 16:45 | 52.46130 | 9.38503 | 909 ft | 150 kts | 135° |
| 2026-04-15 16:46 | 52.45622 | 9.39851 | 530 ft | 142 kts | 101° |
| 2026-04-15 16:46 | 52.45628 | 9.41438 | 263 ft | 136 kts | 85° |
| 2026-04-15 16:46 | 52.45748 | 9.42771 | 245 ft | 127 kts | 84° |
| 2026-04-15 16:46 | 52.45914 | 9.44515 | 616 ft | 180 kts | 82° |
| 2026-04-15 16:47 | 52.46387 | 9.46640 | 819 ft | 210 kts | 49° |
| 2026-04-15 16:47 | 52.47734 | 9.47608 | 967 ft | 227 kts | 0° |
| 2026-04-15 16:47 | 52.49189 | 9.46619 | 1034 ft | 233 kts | 313° |
| 2026-04-15 16:47 | 52.49778 | 9.44273 | 1083 ft | 226 kts | 266° |
| 2026-04-15 16:48 | 52.49618 | 9.41714 | 1135 ft | 225 kts | 260° |
| 2026-04-15 16:48 | 52.49282 | 9.39248 | 1199 ft | 223 kts | 249° |
| 2026-04-15 16:48 | 52.48399 | 9.37417 | 1174 ft | 193 kts | 202° |
| 2026-04-15 16:48 | 52.47207 | 9.37493 | 1038 ft | 159 kts | 158° |
| 2026-04-15 16:49 | 52.46350 | 9.38384 | 912 ft | 137 kts | 139° |
| 2026-04-15 16:49 | 52.45816 | 9.39509 | 669 ft | 118 kts | 117° |
| 2026-04-15 16:49 | 52.45641 | 9.40811 | 367 ft | 119 kts | 93° |
| 2026-04-15 16:49 | 52.45694 | 9.42136 | 189 ft | 106 kts | 84° |
| 2026-04-15 16:50 | 52.45774 | 9.43177 | 235 ft | 115 kts | 80° |
| 2026-04-15 16:50 | 52.45946 | 9.44832 | 532 ft | 176 kts | 82° |
| 2026-04-15 16:50 | 52.46562 | 9.46768 | 781 ft | 205 kts | 38° |
| 2026-04-15 16:50 | 52.47992 | 9.47280 | 1014 ft | 221 kts | 348° |
| 2026-04-15 16:51 | 52.49232 | 9.45908 | 1060 ft | 224 kts | 300° |
| 2026-04-15 16:51 | 52.49472 | 9.43448 | 1167 ft | 222 kts | 258° |
| 2026-04-15 16:51 | 52.49263 | 9.40896 | 1335 ft | 225 kts | 255° |
| 2026-04-15 16:51 | 52.48521 | 9.38857 | 1335 ft | 199 kts | 214° |
| 2026-04-15 16:52 | 52.47292 | 9.38358 | 1144 ft | 174 kts | 173° |
| 2026-04-15 16:52 | 52.46303 | 9.39108 | 941 ft | 143 kts | 138° |
| 2026-04-15 16:52 | 52.45735 | 9.40445 | 523 ft | 135 kts | 114° |
| 2026-04-15 16:52 | 52.45666 | 9.41911 | 208 ft | 116 kts | 84° |
| 2026-04-15 16:53 | 52.45743 | 9.42869 | 203 ft | 43 kts | 83° |
| 2026-04-15 16:53 | 52.45774 | 9.43073 | 204 ft | 10 kts | 47° |
| 2026-04-15 16:53 | 52.45831 | 9.43090 | 196 ft | 11 kts | 354° |
| 2026-04-15 16:53 | 52.45919 | 9.43074 | 202 ft | 15 kts | 353° |
| 2026-04-15 16:54 | 52.45989 | 9.43006 | 182 ft | 8 kts | 316° |
| 2026-04-15 16:54 | 52.46032 | 9.42981 | 185 ft | 8 kts | 348° |
| 2026-04-15 16:54 | 52.46056 | 9.42938 | 181 ft | 4 kts | 288° |
| 2026-04-15 16:54 | 52.46058 | 9.42902 | 183 ft | 0 kts | 257° |